Latest Weather Observations for Low Head

IDT60801

Issued at 8:32 am EST Sunday 23 July 2017 (issued every 30 minutes, with the page automatically refreshed every 10 minutes)

About weather observations | Map of weather stations | Latest weather observations for TAS | Other Formats
Station Details ID: 091293 Name: LOW HEAD Lat: -41.05 Lon: 146.79 Height: 3.0 m
Data from the previous 72 hours. | See also: Recent months at Low Head
Date/Time
EST
Temp
°C
App
Temp
°C
Dew
Point
°C
Rel
Hum
%
Delta-T
°C
Wind Press
QNH
hPa
Press
MSL
hPa
Rain since
9am
mm
Dir  Spd
km/h
Gust
km/h
Spd
kts
Gust
kts
23/08:30am 11.7 2.3 8.7 82 1.5 W 48 57 26 31 1003.0 1003.0 0.8
23/08:00am 11.6 2.6 9.0 84 1.3 W 46 61 25 33 1002.8 1002.8 0.8
23/07:30am 11.6 2.3 9.2 85 1.2 WNW 48 59 26 32 1002.8 1002.8 0.8
23/07:00am 11.5 3.2 9.2 86 1.2 WNW 43 52 23 28 1002.6 1002.6 0.8
23/06:30am 10.9 0.6 8.3 84 1.3 WNW 52 67 28 36 1002.3 1002.3 0.8
23/06:00am 12.2 1.5 9.4 83 1.4 NW 56 65 30 35 1002.4 1002.4 0.6
23/05:34am 12.5 2.6 9.9 84 1.3 NW 52 76 28 41 1002.3 1002.3 0.6
23/05:30am 12.5 3.1 10.0 85 1.3 NW 50 65 27 35 1002.4 1002.4 0.6
23/05:00am 12.4 3.6 9.4 82 1.5 NW 46 56 25 30 1002.7 1002.7 0.6
23/04:30am 12.6 4.2 9.6 82 1.5 NW 44 56 24 30 1003.1 1003.1 0.6
23/04:00am 12.4 3.5 9.2 81 1.6 NW 46 59 25 32 1003.5 1003.5 0.6
23/03:30am 12.4 1.6 9.2 81 1.6 NW 56 65 30 35 1003.7 1003.7 0.6
23/03:03am 12.6 2.6 9.4 81 1.6 NW 52 70 28 38 1003.8 1003.8 0.6
23/03:00am 12.5 2.1 9.3 81 1.6 NW 54 70 29 38 1003.8 1003.8 0.6
23/02:34am 12.5 1.7 9.1 80 1.7 NW 56 78 30 42 1004.4 1004.4 0.6
23/02:30am 12.5 1.7 9.3 81 1.6 NW 56 70 30 38 1004.4 1004.4 0.6
23/02:00am 12.1 1.2 8.9 81 1.6 NW 56 70 30 38 1005.1 1005.1 0.4
23/01:39am 12.8 2.4 9.1 78 1.9 NW 54 72 29 39 1005.3 1005.3 0.0
23/01:30am 12.8 1.9 8.7 76 2.0 NW 56 72 30 39 1005.2 1005.2 0.0
23/01:00am 12.7 2.6 9.0 78 1.9 NNW 52 65 28 35 1004.9 1004.9 0.0
23/12:30am 12.6 3.2 8.7 77 1.9 NNW 48 59 26 32 1005.8 1005.8 0.0
23/12:00am 12.6 3.7 9.1 79 1.8 NNW 46 61 25 33 1006.5 1006.5 0.0
 
Date/Time
EST
Temp
°C
App
Temp
°C
Dew
Point
°C
Rel
Hum
%
Delta-T
°C
Wind Press
QNH
hPa
Press
MSL
hPa
Rain since
9am
mm
Dir  Spd
km/h
Gust
km/h
Spd
kts
Gust
kts
22/11:30pm 12.8 3.2 9.3 79 1.8 NW 50 63 27 34 1006.8 1006.8 0.0
22/11:00pm 12.9 3.0 9.7 81 1.6 NW 52 61 28 33 1006.9 1006.9 0.0
22/10:30pm 12.9 3.0 9.9 82 1.5 NNW 52 65 28 35 1006.8 1006.8 0.0
22/10:00pm 12.7 3.6 9.7 82 1.5 NW 48 57 26 31 1007.4 1007.4 0.0
22/09:30pm 12.8 3.6 9.6 81 1.6 NW 48 57 26 31 1008.0 1008.0 0.0
22/09:00pm 12.7 4.3 9.5 81 1.6 NW 44 59 24 32 1008.4 1008.4 0.0
22/08:30pm 12.6 5.1 9.4 81 1.6 NW 39 48 21 26 1008.7 1008.7 0.0
22/08:00pm 12.5 4.5 9.1 80 1.7 NW 41 50 22 27 1008.9 1008.9 0.0
22/07:30pm 12.5 4.1 9.0 79 1.8 NW 43 50 23 27 1009.1 1009.1 0.0
22/07:00pm 12.4 4.4 9.1 80 1.7 NW 41 48 22 26 1009.3 1009.3 0.0
22/06:30pm 12.3 4.6 8.8 79 1.7 NW 39 48 21 26 1009.4 1009.4 0.0
22/06:00pm 12.3 3.8 8.6 78 1.8 NW 43 54 23 29 1009.5 1009.5 0.0
22/05:30pm 12.2 4.1 8.5 78 1.8 NW 41 50 22 27 1009.5 1009.5 0.0
22/05:00pm 12.2 4.0 8.3 77 1.9 NW 41 50 22 27 1009.7 1009.7 0.0
22/04:30pm 12.1 3.5 8.2 77 1.9 NW 43 54 23 29 1010.1 1010.1 0.0
22/04:00pm 12.2 3.0 8.1 76 2.0 NW 46 52 25 28 1010.2 1010.2 0.0
22/03:30pm 12.3 3.8 8.4 77 1.9 NW 43 48 23 26 1010.3 1010.3 0.0
22/03:00pm 12.1 5.1 8.6 79 1.7 NW 35 43 19 23 1010.7 1010.7 0.0
22/02:30pm 12.1 3.9 8.4 78 1.8 NW 41 48 22 26 1011.1 1011.1 0.0
22/02:00pm 12.0 3.5 8.5 79 1.7 NW 43 50 23 27 1011.6 1011.6 0.0
22/01:30pm 12.0 4.7 8.7 80 1.6 NW 37 43 20 23 1012.0 1012.0 0.0
22/01:00pm 12.0 5.5 8.8 81 1.6 NW 33 39 18 21 1012.8 1012.8 0.0
22/12:30pm 12.0 4.8 9.0 82 1.5 NNW 37 44 20 24 1013.2 1013.2 0.0
22/12:00pm 12.3 5.9 9.5 83 1.4 NNW 33 39 18 21 1013.7 1013.7 0.0
22/11:30am 11.5 5.2 9.1 85 1.2 NNW 32 37 17 20 1014.6 1014.6 0.0
22/11:00am 11.8 4.9 9.0 83 1.4 NNW 35 41 19 22 1015.4 1015.4 0.0
22/10:30am 11.8 4.8 8.6 81 1.6 NW 35 39 19 21 1015.8 1015.8 0.0
22/10:00am 12.1 6.0 8.4 78 1.8 NW 30 33 16 18 1015.7 1015.7 0.0
22/09:30am 11.8 5.6 7.9 77 1.9 NW 30 33 16 18 1015.8 1015.8 0.0
22/09:00am 12.0 5.8 7.9 76 2.0 NW 30 35 16 19 1016.0 1016.0 0.0
22/08:30am 11.5 4.9 7.6 77 1.9 NW 32 35 17 19 1016.1 1016.1 0.0
22/08:00am 11.4 4.8 7.7 78 1.8 NW 32 39 17 21 1016.2 1016.2 0.0
22/07:30am 11.3 5.4 7.4 77 1.9 NW 28 32 15 17 1016.1 1016.1 0.0
22/07:00am 11.2 4.4 7.1 76 2.0 NW 32 37 17 20 1016.3 1016.3 0.0
22/06:30am 11.5 4.8 7.4 76 2.0 NW 32 41 17 22 1016.4 1016.4 0.0
22/06:00am 11.3 5.7 7.2 76 2.0 NW 26 30 14 16 1016.2 1016.2 0.0
22/05:30am 11.4 5.5 7.3 76 2.0 NW 28 32 15 17 1016.4 1016.4 0.0
22/05:00am 11.4 6.3 7.5 77 1.9 NW 24 30 13 16 1016.5 1016.5 0.0
22/04:30am 11.0 5.7 6.9 76 1.9 NW 24 30 13 16 1016.9 1016.9 0.0
22/04:00am 11.0 6.1 7.1 77 1.9 NW 22 26 12 14 1017.0 1017.0 0.0
22/03:30am 10.9 5.6 6.6 75 2.0 NW 24 30 13 16 1017.6 1017.6 0.0
22/03:00am 11.1 5.1 7.0 76 1.9 NW 28 32 15 17 1018.0 1018.0 0.0
22/02:30am 10.9 5.8 7.8 81 1.5 NW 24 32 13 17 1018.3 1018.3 0.0
22/02:00am 10.8 5.6 8.9 88 0.9 NW 26 32 14 17 1018.7 1018.7 0.0
22/01:30am 7.6 6.0 6.4 92 0.5 SSE 4 9 2 5 1018.9 1018.9 0.0
22/01:00am 7.2 3.8 6.0 92 0.5 S 13 15 7 8 1019.3 1019.3 0.0
22/12:30am 7.4 4.4 6.0 91 0.6 S 11 15 6 8 1019.6 1019.6 0.0
22/12:00am 8.2 5.0 6.7 90 0.7 SSW 13 20 7 11 1020.2 1020.2 0.0
 
Date/Time
EST
Temp
°C
App
Temp
°C
Dew
Point
°C
Rel
Hum
%
Delta-T
°C
Wind Press
QNH
hPa
Press
MSL
hPa
Rain since
9am
mm
Dir  Spd
km/h
Gust
km/h
Spd
kts
Gust
kts
21/11:30pm 8.5 6.1 7.1 91 0.7 SSW 9 11 5 6 1020.5 1020.5 0.0
21/11:00pm 8.0 5.6 6.8 92 0.6 SSW 9 15 5 8 1020.6 1020.6 0.0
21/10:30pm 6.5 2.9 5.1 91 0.6 S 13 15 7 8 1020.6 1020.6 0.0
21/10:00pm 6.8 3.6 5.3 90 0.7 S 11 15 6 8 1020.7 1020.7 0.0
21/09:30pm 8.1 6.0 6.6 90 0.7 SSW 7 11 4 6 1020.8 1020.8 0.0
21/09:00pm 6.4 3.2 4.9 90 0.7 SSE 11 13 6 7 1020.9 1020.9 0.0
21/08:30pm 6.5 3.6 4.7 88 0.8 SSE 9 11 5 6 1020.8 1020.8 0.0
21/08:00pm 6.8 3.1 4.5 85 1.0 SSE 13 15 7 8 1020.8 1020.8 0.0
21/07:30pm 7.6 5.3 4.6 81 1.3 SE 6 9 3 5 1020.9 1020.9 0.0
21/07:00pm 8.6 5.7 4.8 77 1.7 NNW 9 11 5 6 1020.8 1020.8 0.0
21/06:30pm 10.0 7.4 6.2 77 1.8 NNW 9 13 5 7 1020.8 1020.8 0.0
21/06:00pm 9.8 6.4 6.0 77 1.7 NW 13 17 7 9 1021.1 1021.1 0.0
21/05:30pm 9.8 6.8 5.8 76 1.8 NW 11 13 6 7 1021.1 1021.1 0.0
21/05:00pm 10.0 7.3 5.6 74 2.0 NW 9 11 5 6 1021.0 1021.0 0.0
21/04:30pm 11.0 8.0 6.2 72 2.2 WNW 11 15 6 8 1020.9 1020.9 0.0
21/04:00pm 11.4 8.1 6.3 71 2.4 WNW 13 17 7 9 1020.9 1020.9 0.0
21/03:30pm 11.4 7.7 6.3 71 2.4 NW 15 17 8 9 1021.1 1021.1 0.0
21/03:00pm 11.6 9.0 5.9 68 2.6 NW 9 13 5 7 1021.0 1021.0 0.0
21/02:30pm 12.1 9.6 6.4 68 2.7 NW 9 11 5 6 1021.1 1021.1 0.0
21/02:00pm 11.7 9.1 6.0 68 2.7 NW 9 11 5 6 1021.3 1021.3 0.0
21/01:30pm 11.9 9.7 6.4 69 2.6 NW 7 9 4 5 1021.5 1021.5 0.0
21/01:00pm 12.0 9.8 7.9 76 2.0 WNW 9 11 5 6 1021.9 1021.9 0.0
21/12:30pm 10.3 7.9 7.2 81 1.5 WSW 9 13 5 7 1022.3 1022.3 0.0
21/12:00pm 9.8 7.2 7.9 88 0.9 S 11 13 6 7 1022.5 1022.5 0.0
21/11:30am 9.0 5.6 7.8 92 0.6 S 15 17 8 9 1023.0 1023.0 0.0
21/11:00am 8.2 4.4 7.4 95 0.4 S 17 20 9 11 1023.4 1023.4 0.0
21/10:30am 6.9 2.4 6.3 96 0.3 S 19 20 10 11 1023.5 1023.5 0.0
21/10:00am 5.9 1.1 5.5 97 0.2 S 20 22 11 12 1023.5 1023.5 0.0
21/09:30am 5.3 0.9 4.9 97 0.2 S 17 20 9 11 1023.5 1023.5 0.0
21/09:00am 4.5 -0.4 3.9 96 0.2 SSW 19 20 10 11 1023.2 1023.2 0.0
21/08:30am 5.7 0.8 5.1 96 0.3 S 20 22 11 12 1022.8 1022.8 0.0
21/08:00am 4.6 -0.5 4.0 96 0.2 SSE 20 22 11 12 1022.5 1022.5 0.0
21/07:30am 4.0 -0.7 3.4 96 0.2 SSE 17 20 9 11 1022.6 1022.6 0.0
21/07:00am 4.1 -0.2 3.5 96 0.2 SSE 15 19 8 10 1022.3 1022.3 0.0
21/06:30am 4.1 -0.6 3.4 95 0.3 SSE 17 20 9 11 1022.1 1022.1 0.0
21/06:00am 4.5 -0.1 3.8 95 0.3 SSE 17 20 9 11 1022.0 1022.0 0.0
21/05:30am 5.0 -0.1 4.3 95 0.3 SSE 20 24 11 13 1021.8 1021.8 0.0
21/05:00am 3.9 -0.8 3.2 95 0.3 SSE 17 20 9 11 1021.5 1021.5 0.0
21/04:30am 4.9 -0.2 4.0 94 0.4 S 20 22 11 12 1021.3 1021.3 0.0
21/04:00am 5.1 0.2 4.2 94 0.4 S 19 22 10 12 1021.3 1021.3 0.0
21/03:30am 4.4 -0.2 3.5 94 0.4 SSE 17 19 9 10 1021.1 1021.1 0.0
21/03:00am 4.7 0.5 3.7 93 0.4 SSE 15 19 8 10 1021.1 1021.1 0.0
21/02:30am 5.1 1.0 4.1 93 0.4 S 15 20 8 11 1021.2 1021.2 0.0
21/02:00am 5.6 1.1 4.4 92 0.5 SSE 17 19 9 10 1021.2 1021.2 0.0
21/01:30am 5.6 1.1 4.2 91 0.6 SSE 17 20 9 11 1021.1 1021.1 0.0
21/01:00am 5.6 1.5 4.2 91 0.6 S 15 19 8 10 1021.3 1021.3 0.0
21/12:30am 6.2 2.5 4.7 90 0.6 S 13 17 7 9 1021.2 1021.2 0.0
21/12:00am 5.6 1.4 3.8 88 0.8 SSE 15 17 8 9 1021.1 1021.1 0.0
 
Date/Time
EST
Temp
°C
App
Temp
°C
Dew
Point
°C
Rel
Hum
%
Delta-T
°C
Wind Press
QNH
hPa
Press
MSL
hPa
Rain since
9am
mm
Dir  Spd
km/h
Gust
km/h
Spd
kts
Gust
kts
20/11:30pm 5.5 1.6 3.3 86 0.9 SSE 13 17 7 9 1021.1 1021.1 0.0
20/11:00pm 6.3 3.2 3.8 84 1.1 S 9 11 5 6 1020.9 1020.9 0.0
20/10:30pm 6.5 3.0 3.5 81 1.3 S 11 13 6 7 1020.7 1020.7 0.0
20/10:00pm 7.1 3.6 3.7 79 1.4 SSE 11 11 6 6 1020.6 1020.6 0.0
20/09:30pm 7.1 3.6 3.7 79 1.4 SE 11 13 6 7 1020.4 1020.4 0.0
20/09:00pm 6.1 2.4 2.6 78 1.4 SSE 11 13 6 7 1020.3 1020.3 0.0
20/08:30pm 7.5 3.6 3.6 76 1.7 S 13 17 7 9 1019.8 1019.8 0.0
20/08:00pm 8.0 5.9 4.0 76 1.7 SSE 4 7 2 4 1019.4 1019.4 0.0
20/07:30pm 7.9 4.0 3.6 74 1.8 SE 13 13 7 7 1018.9 1018.9 0.0
20/07:00pm 8.1 4.2 3.6 73 1.9 SSE 13 15 7 8 1018.3 1018.3 0.0
20/06:30pm 8.6 4.3 3.4 70 2.2 S 15 19 8 10 1017.9 1017.9 0.0
20/06:00pm 9.1 6.0 3.5 68 2.4 SE 9 13 5 7 1017.4 1017.4 0.0
20/05:30pm 9.4 5.1 3.4 66 2.6 SSE 15 20 8 11 1016.8 1016.8 0.0
20/05:00pm 10.7 4.0 3.5 61 3.2 SSE 28 41 15 22 1015.9 1015.9 0.0
20/04:30pm 11.2 6.0 3.7 60 3.3 S 20 24 11 13 1015.5 1015.5 0.0
20/04:00pm 11.6 5.6 3.4 57 3.6 S 24 32 13 17 1014.9 1014.9 0.0
20/03:30pm 12.0 7.3 3.3 55 3.8 SSW 17 24 9 13 1014.3 1014.3 0.0
20/03:00pm 11.9 6.6 2.9 54 3.9 SSW 20 26 11 14 1013.7 1013.7 0.0
20/02:30pm 11.8 6.5 1.7 50 4.3 S 19 24 10 13 1013.3 1013.3 0.0
20/02:00pm 11.6 6.1 2.1 52 4.1 SSW 20 26 11 14 1012.7 1012.7 0.0
20/01:30pm 11.6 6.4 2.6 54 3.9 S 19 30 10 16 1012.2 1012.2 0.0
20/01:00pm 11.0 6.5 2.1 54 3.8 SSE 15 20 8 11 1012.1 1012.1 0.0
20/12:30pm 10.7 6.1 1.8 54 3.8 SSE 15 20 8 11 1011.7 1011.7 0.0
20/12:08pm 10.5 5.8 1.1 52 3.9 SSE 15 37 8 20 1011.5 1011.5 0.0
20/12:00pm 10.4 7.1 2.3 57 3.4 S 9 19 5 10 1011.5 1011.5 0.0
20/11:30am 9.8 5.6 1.7 57 3.4 S 13 26 7 14 1011.3 1011.3 0.0
20/11:00am 9.5 4.2 1.7 58 3.2 SSW 19 26 10 14 1011.0 1011.0 0.0
20/10:30am 9.0 3.0 3.4 68 2.4 SW 24 30 13 16 1010.7 1010.7 0.0
20/10:00am 8.2 2.1 2.9 69 2.2 WSW 24 28 13 15 1010.4 1010.4 0.0
20/09:30am 7.6 1.8 2.5 70 2.1 SW 22 30 12 16 1010.1 1010.1 0.0
20/09:00am 6.7 4.2 1.8 71 2.0 SW 4 9 2 5 1010.1 1010.1 0.0

Other Formats:

Comma delimited format used in spreadsheet applications
http://www.bom.gov.au/fwo/IDT60801/IDT60801.95964.axf

JavaScript Object Notation format (JSON) in row-major order
http://www.bom.gov.au/fwo/IDT60801/IDT60801.95964.json